Rozellville, Wisconsin
Current Conditions -  °F | °C
As of 12:54 PM on Tuesday 27 Jan 2015 (Local Time) from KMFI Reporting Station
Haze Haze  
Wind Chill: 25°   Ceiling: 2100
Heat Index: 25°   Visibility: 4mi
Dew Point: 21°   Wind: 3mph
Humidity: 85%   Direction: 130°SE
Pressure: 30.17"   Gusts: NA
Location:  44.7914°N, 90.0669°W
Report Text: KMFI 271854Z AUTO 13003KT 4SM BR OVC021 M04/M06 A3017 RMK AO2 SLP239 T10391061
Loading
Personal Weather Stations






























Interactive Weather Map New forecast layout! Learn more

10-Day Weather Forecast

Advertisements
Track Severe Weather on mobile